sensor_id;sensor_type;location;lat;lon;timestamp;pressure;altitude;pressure_sealevel;temperature
70333;BMP280;57747;43.548;-5.704;2023-09-30T00:01:10;102203.06;;;21.25
70333;BMP280;57747;43.548;-5.704;2023-09-30T00:03:42;102202.72;;;21.26
70333;BMP280;57747;43.548;-5.704;2023-09-30T00:06:07;102193.75;;;21.34
70333;BMP280;57747;43.548;-5.704;2023-09-30T00:08:37;102199.97;;;21.26
70333;BMP280;57747;43.548;-5.704;2023-09-30T00:11:10;102194.84;;;21.16
70333;BMP280;57747;43.548;-5.704;2023-09-30T00:13:36;102194.38;;;21.22
70333;BMP280;57747;43.548;-5.704;2023-09-30T00:16:02;102189.56;;;21.19
70333;BMP280;57747;43.548;-5.704;2023-09-30T00:18:27;102185.56;;;21.08
70333;BMP280;57747;43.548;-5.704;2023-09-30T00:20:55;102186.63;;;20.98
70333;BMP280;57747;43.548;-5.704;2023-09-30T00:23:25;102186.81;;;21.02
70333;BMP280;57747;43.548;-5.704;2023-09-30T00:25:51;102184.19;;;20.97
70333;BMP280;57747;43.548;-5.704;2023-09-30T00:28:16;102186.28;;;21.00
70333;BMP280;57747;43.548;-5.704;2023-09-30T00:30:44;102190.31;;;20.94
70333;BMP280;57747;43.548;-5.704;2023-09-30T00:33:13;102188.34;;;20.85
70333;BMP280;57747;43.548;-5.704;2023-09-30T00:35:38;102180.28;;;20.72
70333;BMP280;57747;43.548;-5.704;2023-09-30T00:38:07;102179.97;;;20.73
70333;BMP280;57747;43.548;-5.704;2023-09-30T00:40:33;102170.31;;;20.58
70333;BMP280;57747;43.548;-5.704;2023-09-30T00:43:02;102164.19;;;20.53
70333;BMP280;57747;43.548;-5.704;2023-09-30T00:45:29;102164.00;;;20.49
70333;BMP280;57747;43.548;-5.704;2023-09-30T00:47:55;102164.47;;;20.42
70333;BMP280;57747;43.548;-5.704;2023-09-30T00:50:21;102162.09;;;20.50
70333;BMP280;57747;43.548;-5.704;2023-09-30T00:52:48;102163.47;;;20.38
70333;BMP280;57747;43.548;-5.704;2023-09-30T00:55:15;102160.75;;;20.38
70333;BMP280;57747;43.548;-5.704;2023-09-30T00:57:42;102162.19;;;20.44
70333;BMP280;57747;43.548;-5.704;2023-09-30T01:02:40;102168.63;;;20.40
70333;BMP280;57747;43.548;-5.704;2023-09-30T01:05:07;102163.03;;;20.45
70333;BMP280;57747;43.548;-5.704;2023-09-30T01:07:34;102161.06;;;20.37
70333;BMP280;57747;43.548;-5.704;2023-09-30T01:10:00;102152.38;;;20.26
70333;BMP280;57747;43.548;-5.704;2023-09-30T01:12:25;102154.94;;;20.22
70333;BMP280;57747;43.548;-5.704;2023-09-30T01:14:59;102154.94;;;20.22
70333;BMP280;57747;43.548;-5.704;2023-09-30T01:17:25;102152.22;;;20.22
70333;BMP280;57747;43.548;-5.704;2023-09-30T01:19:51;102143.69;;;20.24
70333;BMP280;57747;43.548;-5.704;2023-09-30T01:22:17;102143.53;;;20.20
70333;BMP280;57747;43.548;-5.704;2023-09-30T01:24:43;102138.88;;;20.21
70333;BMP280;57747;43.548;-5.704;2023-09-30T01:27:13;102138.72;;;20.17
70333;BMP280;57747;43.548;-5.704;2023-09-30T01:29:38;102129.03;;;20.02
70333;BMP280;57747;43.548;-5.704;2023-09-30T01:32:07;102132.91;;;20.10
70333;BMP280;57747;43.548;-5.704;2023-09-30T01:34:36;102127.78;;;20.08
70333;BMP280;57747;43.548;-5.704;2023-09-30T01:37:02;102136.00;;;20.17
70333;BMP280;57747;43.548;-5.704;2023-09-30T01:39:30;102134.25;;;20.21
70333;BMP280;57747;43.548;-5.704;2023-09-30T01:41:58;102131.31;;;20.09
70333;BMP280;57747;43.548;-5.704;2023-09-30T01:44:24;102130.47;;;20.00
70333;BMP280;57747;43.548;-5.704;2023-09-30T01:46:51;102129.63;;;19.99
70333;BMP280;57747;43.548;-5.704;2023-09-30T01:49:17;102127.69;;;19.91
70333;BMP280;57747;43.548;-5.704;2023-09-30T01:51:43;102139.50;;;19.86
70333;BMP280;57747;43.548;-5.704;2023-09-30T01:54:09;102139.03;;;19.93
70333;BMP280;57747;43.548;-5.704;2023-09-30T01:56:36;102128.97;;;19.94
70333;BMP280;57747;43.548;-5.704;2023-09-30T01:59:01;102133.72;;;19.65
70333;BMP280;57747;43.548;-5.704;2023-09-30T02:01:27;102127.34;;;19.70
70333;BMP280;57747;43.548;-5.704;2023-09-30T02:03:53;102131.78;;;19.66
70333;BMP280;57747;43.548;-5.704;2023-09-30T02:06:18;102130.69;;;19.67
70333;BMP280;57747;43.548;-5.704;2023-09-30T02:08:44;102126.94;;;19.77
70333;BMP280;57747;43.548;-5.704;2023-09-30T02:11:10;102130.09;;;19.70
70333;BMP280;57747;43.548;-5.704;2023-09-30T02:13:38;102122.78;;;19.57
70333;BMP280;57747;43.548;-5.704;2023-09-30T02:16:11;102130.81;;;19.62
70333;BMP280;57747;43.548;-5.704;2023-09-30T02:18:37;102126.09;;;19.53
70333;BMP280;57747;43.548;-5.704;2023-09-30T02:21:02;102124.44;;;19.66
70333;BMP280;57747;43.548;-5.704;2023-09-30T02:23:29;102128.03;;;19.53
70333;BMP280;57747;43.548;-5.704;2023-09-30T02:25:54;102129.38;;;19.42
70333;BMP280;57747;43.548;-5.704;2023-09-30T02:28:20;102130.94;;;19.57
70333;BMP280;57747;43.548;-5.704;2023-09-30T02:30:46;102128.66;;;19.50
70333;BMP280;57747;43.548;-5.704;2023-09-30T02:33:11;102130.47;;;19.41
70333;BMP280;57747;43.548;-5.704;2023-09-30T02:35:36;102128.25;;;19.43
70333;BMP280;57747;43.548;-5.704;2023-09-30T02:38:04;102128.75;;;19.45
70333;BMP280;57747;43.548;-5.704;2023-09-30T02:40:30;102123.53;;;19.34
70333;BMP280;57747;43.548;-5.704;2023-09-30T02:42:55;102121.72;;;19.44
70333;BMP280;57747;43.548;-5.704;2023-09-30T02:45:21;102123.09;;;19.55
70333;BMP280;57747;43.548;-5.704;2023-09-30T02:47:47;102121.16;;;19.56
70333;BMP280;57747;43.548;-5.704;2023-09-30T02:50:12;102111.69;;;19.53
70333;BMP280;57747;43.548;-5.704;2023-09-30T02:52:41;102117.25;;;19.48
70333;BMP280;57747;43.548;-5.704;2023-09-30T02:55:11;102115.56;;;19.38
70333;BMP280;57747;43.548;-5.704;2023-09-30T02:57:37;102107.78;;;19.23
70333;BMP280;57747;43.548;-5.704;2023-09-30T03:02:41;102108.13;;;19.30
70333;BMP280;57747;43.548;-5.704;2023-09-30T03:05:07;102107.66;;;19.28
70333;BMP280;57747;43.548;-5.704;2023-09-30T03:07:32;102107.66;;;19.28
70333;BMP280;57747;43.548;-5.704;2023-09-30T03:09:58;102110.06;;;19.29
70333;BMP280;57747;43.548;-5.704;2023-09-30T03:12:25;102108.97;;;19.30
70333;BMP280;57747;43.548;-5.704;2023-09-30T03:14:51;102106.66;;;19.24
70333;BMP280;57747;43.548;-5.704;2023-09-30T03:17:16;102108.88;;;19.22
70333;BMP280;57747;43.548;-5.704;2023-09-30T03:19:44;102105.94;;;19.32
70333;BMP280;57747;43.548;-5.704;2023-09-30T03:22:10;102110.59;;;19.31
70333;BMP280;57747;43.548;-5.704;2023-09-30T03:24:37;102112.59;;;19.26
70333;BMP280;57747;43.548;-5.704;2023-09-30T03:27:02;102101.34;;;19.19
70333;BMP280;57747;43.548;-5.704;2023-09-30T03:29:28;102099.22;;;19.15
70333;BMP280;57747;43.548;-5.704;2023-09-30T03:31:53;102106.66;;;19.24
70333;BMP280;57747;43.548;-5.704;2023-09-30T03:34:19;102110.84;;;19.30
70333;BMP280;57747;43.548;-5.704;2023-09-30T03:36:45;102096.38;;;19.21
70333;BMP280;57747;43.548;-5.704;2023-09-30T03:39:11;102101.41;;;19.27
70333;BMP280;57747;43.548;-5.704;2023-09-30T03:41:40;102103.81;;;19.29
70333;BMP280;57747;43.548;-5.704;2023-09-30T03:44:08;102099.50;;;19.28
70333;BMP280;57747;43.548;-5.704;2023-09-30T03:46:33;102097.72;;;19.23
70333;BMP280;57747;43.548;-5.704;2023-09-30T03:48:59;102101.53;;;19.22
70333;BMP280;57747;43.548;-5.704;2023-09-30T03:51:25;102093.19;;;19.19
70333;BMP280;57747;43.548;-5.704;2023-09-30T03:53:54;102093.66;;;19.21
70333;BMP280;57747;43.548;-5.704;2023-09-30T03:56:22;102098.13;;;19.17
70333;BMP280;57747;43.548;-5.704;2023-09-30T03:58:48;102094.69;;;19.11
70333;BMP280;57747;43.548;-5.704;2023-09-30T04:01:13;102095.03;;;19.09
70333;BMP280;57747;43.548;-5.704;2023-09-30T04:03:40;102091.88;;;19.16
70333;BMP280;57747;43.548;-5.704;2023-09-30T04:06:06;102094.88;;;19.14
70333;BMP280;57747;43.548;-5.704;2023-09-30T04:08:35;102089.16;;;19.02
70333;BMP280;57747;43.548;-5.704;2023-09-30T04:11:01;102087.78;;;19.05
70333;BMP280;57747;43.548;-5.704;2023-09-30T04:13:28;102083.84;;;18.97
70333;BMP280;57747;43.548;-5.704;2023-09-30T04:15:55;102088.59;;;18.91
70333;BMP280;57747;43.548;-5.704;2023-09-30T04:18:20;102089.38;;;18.92
70333;BMP280;57747;43.548;-5.704;2023-09-30T04:20:47;102092.00;;;18.97
70333;BMP280;57747;43.548;-5.704;2023-09-30T04:23:13;102086.16;;;19.04
70333;BMP280;57747;43.548;-5.704;2023-09-30T04:25:39;102086.34;;;19.07
70333;BMP280;57747;43.548;-5.704;2023-09-30T04:28:08;102086.06;;;18.95
70333;BMP280;57747;43.548;-5.704;2023-09-30T04:30:33;102077.91;;;18.95
70333;BMP280;57747;43.548;-5.704;2023-09-30T04:32:59;102079.72;;;19.00
70333;BMP280;57747;43.548;-5.704;2023-09-30T04:35:26;102082.13;;;19.15
70333;BMP280;57747;43.548;-5.704;2023-09-30T04:37:52;102065.81;;;19.15
70333;BMP280;57747;43.548;-5.704;2023-09-30T04:40:18;102065.88;;;19.24
70333;BMP280;57747;43.548;-5.704;2023-09-30T04:42:48;102070.38;;;19.28
70333;BMP280;57747;43.548;-5.704;2023-09-30T04:45:14;102067.34;;;19.30
70333;BMP280;57747;43.548;-5.704;2023-09-30T04:47:45;102063.03;;;19.29
70333;BMP280;57747;43.548;-5.704;2023-09-30T04:50:11;102069.28;;;19.29
70333;BMP280;57747;43.548;-5.704;2023-09-30T04:52:38;102070.91;;;19.30
70333;BMP280;57747;43.548;-5.704;2023-09-30T04:55:09;102067.53;;;19.33
70333;BMP280;57747;43.548;-5.704;2023-09-30T04:57:37;102072.19;;;19.33
70333;BMP280;57747;43.548;-5.704;2023-09-30T05:00:03;102067.06;;;19.31
70333;BMP280;57747;43.548;-5.704;2023-09-30T05:02:36;102070.72;;;19.27
70333;BMP280;57747;43.548;-5.704;2023-09-30T05:05:01;102057.84;;;19.19
70333;BMP280;57747;43.548;-5.704;2023-09-30T05:07:28;102064.41;;;19.18
70333;BMP280;57747;43.548;-5.704;2023-09-30T05:09:54;102069.91;;;19.12
70333;BMP280;57747;43.548;-5.704;2023-09-30T05:12:20;102070.13;;;19.16
70333;BMP280;57747;43.548;-5.704;2023-09-30T05:14:45;102064.69;;;19.16
70333;BMP280;57747;43.548;-5.704;2023-09-30T05:17:11;102061.69;;;19.18
70333;BMP280;57747;43.548;-5.704;2023-09-30T05:19:38;102055.97;;;19.05
70333;BMP280;57747;43.548;-5.704;2023-09-30T05:22:04;102073.31;;;18.95
70333;BMP280;57747;43.548;-5.704;2023-09-30T05:24:30;102068.19;;;18.94
70333;BMP280;57747;43.548;-5.704;2023-09-30T05:26:58;102062.03;;;18.88
70333;BMP280;57747;43.548;-5.704;2023-09-30T05:29:24;102054.59;;;18.94
70333;BMP280;57747;43.548;-5.704;2023-09-30T05:31:49;102057.22;;;18.85
70333;BMP280;57747;43.548;-5.704;2023-09-30T05:34:15;102061.16;;;18.79
70333;BMP280;57747;43.548;-5.704;2023-09-30T05:36:41;102055.19;;;18.77
70333;BMP280;57747;43.548;-5.704;2023-09-30T05:39:07;102063.47;;;18.72
70333;BMP280;57747;43.548;-5.704;2023-09-30T05:41:35;102059.84;;;18.76
70333;BMP280;57747;43.548;-5.704;2023-09-30T05:44:03;102063.22;;;18.82
70333;BMP280;57747;43.548;-5.704;2023-09-30T05:46:36;102065.56;;;18.89
70333;BMP280;57747;43.548;-5.704;2023-09-30T05:49:01;102060.13;;;18.89
70333;BMP280;57747;43.548;-5.704;2023-09-30T05:51:27;102066.25;;;18.94
70333;BMP280;57747;43.548;-5.704;2023-09-30T05:53:52;102070.81;;;18.85
70333;BMP280;57747;43.548;-5.704;2023-09-30T05:56:19;102065.75;;;18.78
70333;BMP280;57747;43.548;-5.704;2023-09-30T05:58:45;102063.84;;;18.79
70333;BMP280;57747;43.548;-5.704;2023-09-30T06:01:12;102069.66;;;18.86
70333;BMP280;57747;43.548;-5.704;2023-09-30T06:03:38;102062.25;;;18.78
70333;BMP280;57747;43.548;-5.704;2023-09-30T06:06:13;102060.22;;;18.70
70333;BMP280;57747;43.548;-5.704;2023-09-30T06:08:42;102064.97;;;18.64
70333;BMP280;57747;43.548;-5.704;2023-09-30T06:11:19;102068.78;;;18.49
70333;BMP280;57747;43.548;-5.704;2023-09-30T06:13:47;102056.75;;;18.42
70333;BMP280;57747;43.548;-5.704;2023-09-30T06:16:15;102062.63;;;18.44
70333;BMP280;57747;43.548;-5.704;2023-09-30T06:18:41;102064.59;;;18.43
70333;BMP280;57747;43.548;-5.704;2023-09-30T06:21:07;102072.72;;;18.43
70333;BMP280;57747;43.548;-5.704;2023-09-30T06:23:38;102070.38;;;18.36
70333;BMP280;57747;43.548;-5.704;2023-09-30T06:26:03;102065.78;;;18.37
70333;BMP280;57747;43.548;-5.704;2023-09-30T06:28:29;102072.28;;;18.36
70333;BMP280;57747;43.548;-5.704;2023-09-30T06:30:57;102068.78;;;18.35
70333;BMP280;57747;43.548;-5.704;2023-09-30T06:33:23;102063.34;;;18.35
70333;BMP280;57747;43.548;-5.704;2023-09-30T06:35:48;102070.13;;;18.38
70333;BMP280;57747;43.548;-5.704;2023-09-30T06:38:20;102063.47;;;18.44
70333;BMP280;57747;43.548;-5.704;2023-09-30T06:40:47;102065.34;;;18.44
70333;BMP280;57747;43.548;-5.704;2023-09-30T06:43:13;102069.78;;;18.39
70333;BMP280;57747;43.548;-5.704;2023-09-30T06:45:44;102072.72;;;18.43
70333;BMP280;57747;43.548;-5.704;2023-09-30T06:48:14;102072.31;;;18.50
70333;BMP280;57747;43.548;-5.704;2023-09-30T06:50:44;102067.97;;;18.49
70333;BMP280;57747;43.548;-5.704;2023-09-30T06:53:11;102079.44;;;18.32
70333;BMP280;57747;43.548;-5.704;2023-09-30T06:55:38;102072.50;;;18.39
70333;BMP280;57747;43.548;-5.704;2023-09-30T06:58:09;102077.53;;;18.46
70333;BMP280;57747;43.548;-5.704;2023-09-30T07:00:40;102090.13;;;18.42
70333;BMP280;57747;43.548;-5.704;2023-09-30T07:03:06;102091.75;;;18.43
70333;BMP280;57747;43.548;-5.704;2023-09-30T07:05:32;102095.13;;;18.49
70333;BMP280;57747;43.548;-5.704;2023-09-30T07:07:58;102080.66;;;18.53
70333;BMP280;57747;43.548;-5.704;2023-09-30T07:10:24;102080.44;;;18.64
70333;BMP280;57747;43.548;-5.704;2023-09-30T07:12:49;102080.19;;;18.65
70333;BMP280;57747;43.548;-5.704;2023-09-30T07:15:18;102084.09;;;18.73
70333;BMP280;57747;43.548;-5.704;2023-09-30T07:17:44;102092.47;;;18.76
70333;BMP280;57747;43.548;-5.704;2023-09-30T07:20:11;102090.03;;;18.89
70333;BMP280;57747;43.548;-5.704;2023-09-30T07:22:37;102085.09;;;18.91
70333;BMP280;57747;43.548;-5.704;2023-09-30T07:25:03;102092.19;;;19.01
70333;BMP280;57747;43.548;-5.704;2023-09-30T07:27:29;102094.50;;;19.07
70333;BMP280;57747;43.548;-5.704;2023-09-30T07:29:55;102098.31;;;19.20
70333;BMP280;57747;43.548;-5.704;2023-09-30T07:32:21;102092.34;;;19.32
70333;BMP280;57747;43.548;-5.704;2023-09-30T07:34:50;102096.31;;;19.48
70333;BMP280;57747;43.548;-5.704;2023-09-30T07:37:19;102094.09;;;19.50
70333;BMP280;57747;43.548;-5.704;2023-09-30T07:39:46;102094.16;;;19.59
70333;BMP280;57747;43.548;-5.704;2023-09-30T07:42:11;102092.47;;;19.72
70333;BMP280;57747;43.548;-5.704;2023-09-30T07:44:37;102096.53;;;19.83
70333;BMP280;57747;43.548;-5.704;2023-09-30T07:47:04;102098.41;;;19.74
70333;BMP280;57747;43.548;-5.704;2023-09-30T07:49:32;102089.69;;;19.63
70333;BMP280;57747;43.548;-5.704;2023-09-30T07:51:58;102093.53;;;19.62
70333;BMP280;57747;43.548;-5.704;2023-09-30T07:54:26;102091.38;;;19.73
70333;BMP280;57747;43.548;-5.704;2023-09-30T07:56:52;102090.88;;;19.94
70333;BMP280;57747;43.548;-5.704;2023-09-30T07:59:17;102093.78;;;20.06
70333;BMP280;57747;43.548;-5.704;2023-09-30T08:01:52;102093.06;;;20.23
70333;BMP280;57747;43.548;-5.704;2023-09-30T08:04:18;102090.66;;;20.13
70333;BMP280;57747;43.548;-5.704;2023-09-30T08:06:44;102088.28;;;20.20
70333;BMP280;57747;43.548;-5.704;2023-09-30T08:09:12;102102.22;;;20.27
70333;BMP280;57747;43.548;-5.704;2023-09-30T08:11:38;102107.31;;;20.51
70333;BMP280;57747;43.548;-5.704;2023-09-30T08:14:07;102105.03;;;20.53
70333;BMP280;57747;43.548;-5.704;2023-09-30T08:16:34;102098.81;;;20.61
70333;BMP280;57747;43.548;-5.704;2023-09-30T08:19:03;102111.97;;;20.59
70333;BMP280;57747;43.548;-5.704;2023-09-30T08:21:29;102103.63;;;20.56
70333;BMP280;57747;43.548;-5.704;2023-09-30T08:23:55;102111.19;;;20.67
70333;BMP280;57747;43.548;-5.704;2023-09-30T08:26:24;102109.44;;;20.72
70333;BMP280;57747;43.548;-5.704;2023-09-30T08:28:52;102104.25;;;20.61
70333;BMP280;57747;43.548;-5.704;2023-09-30T08:31:18;102102.88;;;20.81
70333;BMP280;57747;43.548;-5.704;2023-09-30T08:33:47;102101.78;;;20.82
70333;BMP280;57747;43.548;-5.704;2023-09-30T08:36:13;102103.22;;;20.97
70333;BMP280;57747;43.548;-5.704;2023-09-30T08:38:40;102118.47;;;20.98
70333;BMP280;57747;43.548;-5.704;2023-09-30T08:41:07;102114.16;;;21.06
70333;BMP280;57747;43.548;-5.704;2023-09-30T08:43:39;102109.50;;;21.15
70333;BMP280;57747;43.548;-5.704;2023-09-30T08:46:29;102120.22;;;21.29
70333;BMP280;57747;43.548;-5.704;2023-09-30T08:48:57;102110.13;;;21.47
70333;BMP280;57747;43.548;-5.704;2023-09-30T08:51:23;102104.50;;;21.61
70333;BMP280;57747;43.548;-5.704;2023-09-30T08:53:50;102113.16;;;21.63
70333;BMP280;57747;43.548;-5.704;2023-09-30T08:56:21;102118.88;;;21.79
70333;BMP280;57747;43.548;-5.704;2023-09-30T08:58:49;102110.53;;;21.84
70333;BMP280;57747;43.548;-5.704;2023-09-30T09:01:19;102110.00;;;21.99
70333;BMP280;57747;43.548;-5.704;2023-09-30T09:03:44;102101.91;;;21.82
70333;BMP280;57747;43.548;-5.704;2023-09-30T09:06:12;102109.44;;;21.76
70333;BMP280;57747;43.548;-5.704;2023-09-30T09:08:38;102106.06;;;21.79
70333;BMP280;57747;43.548;-5.704;2023-09-30T09:11:06;102114.66;;;21.99
70333;BMP280;57747;43.548;-5.704;2023-09-30T09:13:46;102114.84;;;22.03
70333;BMP280;57747;43.548;-5.704;2023-09-30T09:16:15;102113.50;;;22.09
70333;BMP280;57747;43.548;-5.704;2023-09-30T09:18:40;102102.63;;;22.38
70333;BMP280;57747;43.548;-5.704;2023-09-30T09:21:20;102103.25;;;22.44
70333;BMP280;57747;43.548;-5.704;2023-09-30T09:23:49;102108.81;;;22.56
70333;BMP280;57747;43.548;-5.704;2023-09-30T09:26:26;102112.63;;;22.85
70333;BMP280;57747;43.548;-5.704;2023-09-30T09:28:59;102109.53;;;22.87
70333;BMP280;57747;43.548;-5.704;2023-09-30T09:31:30;102107.94;;;22.86
70333;BMP280;57747;43.548;-5.704;2023-09-30T09:34:02;102107.41;;;22.92
70333;BMP280;57747;43.548;-5.704;2023-09-30T09:36:44;102102.69;;;22.81
70333;BMP280;57747;43.548;-5.704;2023-09-30T09:39:11;102100.19;;;22.67
70333;BMP280;57747;43.548;-5.704;2023-09-30T09:41:53;102096.81;;;22.70
70333;BMP280;57747;43.548;-5.704;2023-09-30T09:44:24;102104.09;;;22.66
70333;BMP280;57747;43.548;-5.704;2023-09-30T09:46:53;102095.53;;;23.09
70333;BMP280;57747;43.548;-5.704;2023-09-30T09:49:21;102103.50;;;23.35
70333;BMP280;57747;43.548;-5.704;2023-09-30T09:51:48;102103.50;;;23.35
70333;BMP280;57747;43.548;-5.704;2023-09-30T09:54:17;102105.16;;;23.49
70333;BMP280;57747;43.548;-5.704;2023-09-30T09:56:45;102092.88;;;23.67
70333;BMP280;57747;43.548;-5.704;2023-09-30T09:59:14;102090.44;;;23.53
70333;BMP280;57747;43.548;-5.704;2023-09-30T10:01:42;102091.28;;;23.79
70333;BMP280;57747;43.548;-5.704;2023-09-30T10:04:12;102092.81;;;23.43
70333;BMP280;57747;43.548;-5.704;2023-09-30T10:06:44;102081.34;;;23.28
70333;BMP280;57747;43.548;-5.704;2023-09-30T10:09:14;102086.53;;;23.54
70333;BMP280;57747;43.548;-5.704;2023-09-30T10:11:40;102079.19;;;23.67
70333;BMP280;57747;43.548;-5.704;2023-09-30T10:14:08;102077.31;;;23.47
70333;BMP280;57747;43.548;-5.704;2023-09-30T10:19:16;102079.56;;;23.45
70333;BMP280;57747;43.548;-5.704;2023-09-30T10:24:43;102086.75;;;23.37
70333;BMP280;57747;43.548;-5.704;2023-09-30T10:35:41;102077.38;;;23.84
70333;BMP280;57747;43.548;-5.704;2023-09-30T10:40:53;102077.94;;;24.02
70333;BMP280;57747;43.548;-5.704;2023-09-30T10:43:45;102080.56;;;23.86
70333;BMP280;57747;43.548;-5.704;2023-09-30T10:46:40;102074.41;;;24.01
70333;BMP280;57747;43.548;-5.704;2023-09-30T10:49:16;102069.97;;;24.21
70333;BMP280;57747;43.548;-5.704;2023-09-30T10:51:44;102066.69;;;24.56
70333;BMP280;57747;43.548;-5.704;2023-09-30T10:54:13;102061.97;;;24.28
70333;BMP280;57747;43.548;-5.704;2023-09-30T10:56:38;102068.19;;;24.54
70333;BMP280;57747;43.548;-5.704;2023-09-30T10:59:04;102065.72;;;24.11
70333;BMP280;57747;43.548;-5.704;2023-09-30T11:01:34;102066.41;;;24.21
70333;BMP280;57747;43.548;-5.704;2023-09-30T11:04:02;102065.50;;;24.69
70333;BMP280;57747;43.548;-5.704;2023-09-30T11:06:30;102067.97;;;24.46
70333;BMP280;57747;43.548;-5.704;2023-09-30T11:09:00;102052.03;;;24.11
70333;BMP280;57747;43.548;-5.704;2023-09-30T11:11:34;102058.25;;;24.49
70333;BMP280;57747;43.548;-5.704;2023-09-30T11:14:00;102046.00;;;24.59
70333;BMP280;57747;43.548;-5.704;2023-09-30T11:16:25;102049.31;;;24.92
70333;BMP280;57747;43.548;-5.704;2023-09-30T11:18:54;102048.81;;;24.75
70333;BMP280;57747;43.548;-5.704;2023-09-30T11:21:22;102056.63;;;24.88
70333;BMP280;57747;43.548;-5.704;2023-09-30T11:23:47;102050.16;;;25.25
70333;BMP280;57747;43.548;-5.704;2023-09-30T11:26:14;102049.03;;;25.58
70333;BMP280;57747;43.548;-5.704;2023-09-30T11:28:42;102044.66;;;25.73
70333;BMP280;57747;43.548;-5.704;2023-09-30T11:31:09;102044.13;;;25.19
70333;BMP280;57747;43.548;-5.704;2023-09-30T11:33:52;102050.09;;;25.69
70333;BMP280;57747;43.548;-5.704;2023-09-30T11:36:20;102049.63;;;25.67
70333;BMP280;57747;43.548;-5.704;2023-09-30T11:38:47;102040.66;;;25.86
70333;BMP280;57747;43.548;-5.704;2023-09-30T11:41:14;102041.22;;;26.30
70333;BMP280;57747;43.548;-5.704;2023-09-30T11:44:01;102041.94;;;26.47
70333;BMP280;57747;43.548;-5.704;2023-09-30T11:46:27;102036.38;;;26.43
70333;BMP280;57747;43.548;-5.704;2023-09-30T11:49:03;102035.31;;;25.93
70333;BMP280;57747;43.548;-5.704;2023-09-30T11:51:42;102031.63;;;25.85
70333;BMP280;57747;43.548;-5.704;2023-09-30T11:54:11;102034.75;;;26.03
70333;BMP280;57747;43.548;-5.704;2023-09-30T11:56:39;102026.94;;;26.21
70333;BMP280;57747;43.548;-5.704;2023-09-30T11:59:05;102019.41;;;26.38
70333;BMP280;57747;43.548;-5.704;2023-09-30T12:01:30;102025.97;;;26.53
70333;BMP280;57747;43.548;-5.704;2023-09-30T12:03:58;102028.16;;;26.86
70333;BMP280;57747;43.548;-5.704;2023-09-30T12:06:24;102014.00;;;26.64
70333;BMP280;57747;43.548;-5.704;2023-09-30T12:08:51;102015.38;;;26.74
70333;BMP280;57747;43.548;-5.704;2023-09-30T12:11:18;102016.66;;;26.80
70333;BMP280;57747;43.548;-5.704;2023-09-30T12:13:44;102012.81;;;27.08
70333;BMP280;57747;43.548;-5.704;2023-09-30T12:16:10;102006.81;;;27.25
70333;BMP280;57747;43.548;-5.704;2023-09-30T12:18:40;102015.00;;;27.22
70333;BMP280;57747;43.548;-5.704;2023-09-30T12:21:09;102019.19;;;27.12
70333;BMP280;57747;43.548;-5.704;2023-09-30T12:23:36;102006.75;;;26.99
70333;BMP280;57747;43.548;-5.704;2023-09-30T12:26:02;102000.78;;;26.50
70333;BMP280;57747;43.548;-5.704;2023-09-30T12:28:33;102000.19;;;27.03
70333;BMP280;57747;43.548;-5.704;2023-09-30T12:30:59;102010.00;;;27.27
70333;BMP280;57747;43.548;-5.704;2023-09-30T12:33:28;102011.38;;;27.14
70333;BMP280;57747;43.548;-5.704;2023-09-30T12:35:55;102015.91;;;26.83
70333;BMP280;57747;43.548;-5.704;2023-09-30T12:38:22;102004.19;;;26.44
70333;BMP280;57747;43.548;-5.704;2023-09-30T12:40:47;102003.28;;;26.79
70333;BMP280;57747;43.548;-5.704;2023-09-30T12:43:14;101996.94;;;26.98
70333;BMP280;57747;43.548;-5.704;2023-09-30T12:45:39;101992.91;;;27.18
70333;BMP280;57747;43.548;-5.704;2023-09-30T12:48:05;101992.31;;;27.05
70333;BMP280;57747;43.548;-5.704;2023-09-30T12:50:33;101993.53;;;27.08
70333;BMP280;57747;43.548;-5.704;2023-09-30T12:52:58;101998.22;;;27.27
70333;BMP280;57747;43.548;-5.704;2023-09-30T12:55:24;101987.13;;;27.50
70333;BMP280;57747;43.548;-5.704;2023-09-30T12:57:52;101982.31;;;26.94
70333;BMP280;57747;43.548;-5.704;2023-09-30T13:00:21;101987.59;;;27.29
70333;BMP280;57747;43.548;-5.704;2023-09-30T13:02:47;101984.69;;;27.45
70333;BMP280;57747;43.548;-5.704;2023-09-30T13:05:14;101981.88;;;26.92
70333;BMP280;57747;43.548;-5.704;2023-09-30T13:07:41;101973.00;;;27.02
70333;BMP280;57747;43.548;-5.704;2023-09-30T13:10:08;101974.66;;;27.06
70333;BMP280;57747;43.548;-5.704;2023-09-30T13:12:33;101973.63;;;26.92
70333;BMP280;57747;43.548;-5.704;2023-09-30T13:15:00;101977.84;;;26.62
70333;BMP280;57747;43.548;-5.704;2023-09-30T13:17:25;101978.59;;;26.82
70333;BMP280;57747;43.548;-5.704;2023-09-30T13:19:51;101977.19;;;26.49
70333;BMP280;57747;43.548;-5.704;2023-09-30T13:22:17;101973.25;;;26.70
70333;BMP280;57747;43.548;-5.704;2023-09-30T13:24:43;101970.69;;;27.27
70333;BMP280;57747;43.548;-5.704;2023-09-30T13:27:09;101968.63;;;26.97
70333;BMP280;57747;43.548;-5.704;2023-09-30T13:29:37;101966.44;;;27.33
70333;BMP280;57747;43.548;-5.704;2023-09-30T13:32:03;101964.91;;;27.62
70333;BMP280;57747;43.548;-5.704;2023-09-30T13:34:29;101963.50;;;27.49
70333;BMP280;57747;43.548;-5.704;2023-09-30T13:36:55;101954.91;;;27.54
70333;BMP280;57747;43.548;-5.704;2023-09-30T13:39:21;101953.84;;;27.32
70333;BMP280;57747;43.548;-5.704;2023-09-30T13:41:47;101954.38;;;27.18
70333;BMP280;57747;43.548;-5.704;2023-09-30T13:44:13;101942.59;;;27.18
70333;BMP280;57747;43.548;-5.704;2023-09-30T13:46:39;101941.53;;;27.53
70333;BMP280;57747;43.548;-5.704;2023-09-30T13:49:07;101935.34;;;27.33
70333;BMP280;57747;43.548;-5.704;2023-09-30T13:51:33;101944.41;;;27.33
70333;BMP280;57747;43.548;-5.704;2023-09-30T13:53:58;101936.28;;;26.67
70333;BMP280;57747;43.548;-5.704;2023-09-30T13:56:24;101937.97;;;26.53
70333;BMP280;57747;43.548;-5.704;2023-09-30T13:58:50;101927.69;;;26.26
70333;BMP280;57747;43.548;-5.704;2023-09-30T14:01:15;101930.94;;;26.55
70333;BMP280;57747;43.548;-5.704;2023-09-30T14:03:41;101930.66;;;26.60
70333;BMP280;57747;43.548;-5.704;2023-09-30T14:06:13;101925.75;;;27.23
70333;BMP280;57747;43.548;-5.704;2023-09-30T14:08:40;101928.66;;;27.07